Time;durP1;ratioP1;P1;durP2;ratioP2;P2;SDS_P1;SDS_P2;PMS_P1;PMS_P2;Temp;Humidity;BMP_temperature;BMP_pressure;BME280_temperature;BME280_humidity;BME280_pressure;Samples;Min_cycle;Max_cycle;Signal;HPM_P1;HPM_P2
2021/12/08 00:01:57;;;;;;;5.55;2.40;;;;;;;;;;6313908;28;20181;-80
2021/12/08 00:04:59;;;;;;;8.00;3.13;;;;;;;;;;6280352;28;20319;-81
2021/12/08 00:08:01;;;;;;;5.90;2.50;;;;;;;;;;6268630;28;20090;-80
2021/12/08 00:14:25;;;;;;;7.55;2.60;;;;;;;;;;6312192;28;20097;-81
2021/12/08 00:17:27;;;;;;;5.00;2.60;;;;;;;;;;6315132;28;20178;-81
2021/12/08 00:20:32;;;;;;;7.30;3.15;;;;;;;;;;6313195;28;20044;-81
2021/12/08 00:23:33;;;;;;;4.65;2.70;;;;;;;;;;6280857;28;20044;-80
2021/12/08 00:26:36;;;;;;;7.15;3.33;;;;;;;;;;6297779;28;20121;-82
2021/12/08 00:29:38;;;;;;;7.85;2.80;;;;;;;;;;6287514;28;20133;-82
2021/12/08 00:32:40;;;;;;;6.57;2.70;;;;;;;;;;6314706;28;20040;-82
2021/12/08 00:35:45;;;;;;;5.15;2.45;;;;;;;;;;6312580;28;20040;-80
2021/12/08 00:38:46;;;;;;;5.47;2.28;;;;;;;;;;6281588;28;20052;-81
2021/12/08 00:41:48;;;;;;;4.63;1.95;;;;;;;;;;6301469;28;20044;-81
2021/12/08 00:44:50;;;;;;;2.60;1.98;;;;;;;;;;6299333;28;20048;-80
2021/12/08 00:47:53;;;;;;;6.07;2.22;;;;;;;;;;6293510;28;20038;-81
2021/12/08 00:50:55;;;;;;;5.43;2.25;;;;;;;;;;6290352;28;20048;-82
2021/12/08 00:53:57;;;;;;;3.97;1.88;;;;;;;;;;6300467;28;20062;-81
2021/12/08 00:56:59;;;;;;;5.22;2.03;;;;;;;;;;6319934;28;20420;-82
2021/12/08 01:00:03;;;;;;;3.90;2.40;;;;;;;;;;6309375;28;20221;-81
2021/12/08 01:03:09;;;;;;;5.30;2.35;;;;;;;;;;6301240;28;20044;-82
2021/12/08 01:06:11;;;;;;;5.68;2.40;;;;;;;;;;6301401;28;20059;-80
2021/12/08 01:09:16;;;;;;;4.43;2.30;;;;;;;;;;6285065;28;20519;-82
2021/12/08 01:12:17;;;;;;;4.72;1.98;;;;;;;;;;6318381;28;20504;-82
2021/12/08 01:15:21;;;;;;;6.60;2.35;;;;;;;;;;6290164;28;20058;-82
2021/12/08 01:18:24;;;;;;;4.00;2.30;;;;;;;;;;6301493;28;20519;-82
2021/12/08 01:21:26;;;;;;;7.28;3.13;;;;;;;;;;6317396;28;20044;-82
2021/12/08 01:24:27;;;;;;;6.93;2.28;;;;;;;;;;6283664;28;20064;-82
2021/12/08 01:27:30;;;;;;;4.88;2.67;;;;;;;;;;6300796;28;20047;-81
2021/12/08 01:30:32;;;;;;;6.35;3.67;;;;;;;;;;6299889;28;20036;-81
2021/12/08 01:33:35;;;;;;;18.48;9.05;;;;;;;;;;6301506;28;20050;-82
2021/12/08 01:36:39;;;;;;;6.22;2.55;;;;;;;;;;6318240;28;20036;-83
2021/12/08 01:39:41;;;;;;;6.00;2.78;;;;;;;;;;6299028;28;20055;-82
2021/12/08 01:42:47;;;;;;;5.10;2.75;;;;;;;;;;6316112;28;20064;-83
2021/12/08 01:46:00;;;;;;;7.53;2.67;;;;;;;;;;6306853;28;20055;-81
2021/12/08 01:49:03;;;;;;;5.15;2.85;;;;;;;;;;6275557;28;20137;-82
2021/12/08 01:52:06;;;;;;;6.38;3.20;;;;;;;;;;6275840;28;20560;-81
2021/12/08 01:55:10;;;;;;;5.10;2.97;;;;;;;;;;6275698;28;20052;-81
2021/12/08 01:58:17;;;;;;;7.72;3.35;;;;;;;;;;6292320;28;20044;-81
2021/12/08 02:01:22;;;;;;;6.55;2.72;;;;;;;;;;6292033;28;20578;-81
2021/12/08 02:04:24;;;;;;;3.83;2.78;;;;;;;;;;6318873;28;20102;-82
2021/12/08 02:07:25;;;;;;;4.50;2.15;;;;;;;;;;6298853;28;20542;-82
2021/12/08 02:10:27;;;;;;;2.83;2.25;;;;;;;;;;6283045;28;20060;-81
2021/12/08 02:13:36;;;;;;;3.85;2.25;;;;;;;;;;6299789;28;20044;-82
2021/12/08 02:16:39;;;;;;;4.28;2.15;;;;;;;;;;6311498;28;20051;-83
2021/12/08 02:19:40;;;;;;;3.35;2.38;;;;;;;;;;6283805;28;20040;-82
2021/12/08 02:22:42;;;;;;;3.67;2.55;;;;;;;;;;6283332;28;20128;-81
2021/12/08 02:25:46;;;;;;;4.47;2.42;;;;;;;;;;6296231;28;20075;-83
2021/12/08 02:28:48;;;;;;;4.28;2.00;;;;;;;;;;6291273;28;20048;-81
2021/12/08 02:32:04;;;;;;;3.17;2.20;;;;;;;;;;6278308;28;20721;-82
2021/12/08 02:48:28;;;;;;;5.03;2.50;;;;;;;;;;6321745;28;20132;-80
2021/12/08 02:51:30;;;;;;;4.85;2.05;;;;;;;;;;6320590;28;20050;-81
2021/12/08 02:54:42;;;;;;;3.33;2.45;;;;;;;;;;6287024;28;20045;-82
2021/12/08 02:57:44;;;;;;;4.90;2.70;;;;;;;;;;6279645;28;20355;-82
2021/12/08 03:00:51;;;;;;;4.47;2.45;;;;;;;;;;6311051;28;20173;-80
2021/12/08 03:03:53;;;;;;;4.18;2.33;;;;;;;;;;6302766;28;20124;-81
2021/12/08 03:06:55;;;;;;;4.78;2.30;;;;;;;;;;6299106;28;20055;-81
2021/12/08 03:10:12;;;;;;;4.85;2.72;;;;;;;;;;6294614;28;20123;-81
2021/12/08 03:13:14;;;;;;;4.50;2.45;;;;;;;;;;6300692;28;20127;-82
2021/12/08 03:16:15;;;;;;;4.20;2.70;;;;;;;;;;6320176;28;20503;-82
2021/12/08 03:19:20;;;;;;;4.95;2.83;;;;;;;;;;6302164;28;20096;-80
2021/12/08 03:22:23;;;;;;;5.18;2.40;;;;;;;;;;6309846;28;20182;-81
2021/12/08 03:25:25;;;;;;;3.33;2.38;;;;;;;;;;6316615;28;20055;-81
2021/12/08 03:28:31;;;;;;;3.42;2.50;;;;;;;;;;6319084;28;20070;-82
2021/12/08 03:31:42;;;;;;;4.57;2.55;;;;;;;;;;6285153;28;20108;-81
2021/12/08 03:34:51;;;;;;;3.47;2.58;;;;;;;;;;6273430;28;20071;-80
2021/12/08 03:37:54;;;;;;;3.45;2.53;;;;;;;;;;6276237;28;20033;-81
2021/12/08 03:40:58;;;;;;;3.85;2.80;;;;;;;;;;6273821;28;20060;-81
2021/12/08 03:44:01;;;;;;;4.00;2.40;;;;;;;;;;6285739;28;20174;-81
2021/12/08 03:47:12;;;;;;;5.60;2.80;;;;;;;;;;6290557;28;20185;-80
2021/12/08 03:50:18;;;;;;;3.47;2.78;;;;;;;;;;6298437;28;20042;-81
2021/12/08 03:53:20;;;;;;;4.00;2.53;;;;;;;;;;6296803;28;20058;-80
2021/12/08 03:56:21;;;;;;;5.75;2.67;;;;;;;;;;6316145;28;20717;-80
2021/12/08 03:59:24;;;;;;;4.45;3.15;;;;;;;;;;6290175;28;20114;-81
2021/12/08 04:02:26;;;;;;;4.55;3.08;;;;;;;;;;6273569;28;20040;-81
2021/12/08 04:05:41;;;;;;;5.15;3.20;;;;;;;;;;6295850;28;20265;-80
2021/12/08 04:08:52;;;;;;;6.15;2.95;;;;;;;;;;6300286;28;20174;-80
2021/12/08 04:11:55;;;;;;;5.88;3.00;;;;;;;;;;6300012;28;20056;-82
2021/12/08 04:15:03;;;;;;;5.22;3.20;;;;;;;;;;6289755;28;20044;-81
2021/12/08 04:18:05;;;;;;;3.42;2.33;;;;;;;;;;6300907;28;20131;-79
2021/12/08 04:21:09;;;;;;;6.68;2.83;;;;;;;;;;6298333;28;20515;-79
2021/12/08 04:24:11;;;;;;;5.07;2.95;;;;;;;;;;6294674;28;20575;-81
2021/12/08 04:27:19;;;;;;;7.75;4.45;;;;;;;;;;6274408;28;20100;-81
2021/12/08 04:30:26;;;;;;;8.80;4.70;;;;;;;;;;6296783;28;20217;-79
2021/12/08 04:33:28;;;;;;;10.27;5.07;;;;;;;;;;6300637;28;20075;-80
2021/12/08 04:36:40;;;;;;;9.75;5.60;;;;;;;;;;6307612;28;20459;-81
2021/12/08 04:39:56;;;;;;;9.10;4.90;;;;;;;;;;6275766;28;20126;-81
2021/12/08 04:46:51;;;;;;;5.88;4.03;;;;;;;;;;6270243;28;20052;-81
2021/12/08 04:50:59;;;;;;;5.78;3.78;;;;;;;;;;6292492;28;20040;-81
2021/12/08 05:08:13;;;;;;;10.40;5.00;;;;;;;;;;6309934;28;20068;-81
2021/12/08 05:10:46;;;;;;;8.13;4.97;;;;;;;;;;6286015;28;20042;-82
2021/12/08 05:13:53;;;;;;;11.38;5.47;;;;;;;;;;6297870;28;20060;-81
2021/12/08 05:17:00;;;;;;;11.68;5.75;;;;;;;;;;6298843;28;20046;-82
2021/12/08 05:20:13;;;;;;;9.02;5.53;;;;;;;;;;6299931;28;20043;-82
2021/12/08 05:23:23;;;;;;;10.10;4.88;;;;;;;;;;6311009;28;20083;-81
2021/12/08 05:26:48;;;;;;;9.00;5.18;;;;;;;;;;6291368;28;20113;-82
2021/12/08 05:29:56;;;;;;;11.90;7.38;;;;;;;;;;6264746;28;20036;-82
2021/12/08 05:32:59;;;;;;;9.82;6.30;;;;;;;;;;6299104;28;20059;-81
2021/12/08 05:36:03;;;;;;;;;;;;;;;;;;6298984;28;20119;-81
2021/12/08 05:39:12;;;;;;;20.13;10.23;;;;;;;;;;6283818;28;19920;-80
2021/12/08 05:42:17;;;;;;;14.23;8.27;;;;;;;;;;6317554;28;20123;-82
2021/12/08 05:45:21;;;;;;;15.52;10.52;;;;;;;;;;6290590;28;20130;-82
2021/12/08 05:48:23;;;;;;;12.05;7.25;;;;;;;;;;6293359;28;20060;-81
2021/12/08 05:51:28;;;;;;;10.95;6.65;;;;;;;;;;6291538;28;20048;-80
2021/12/08 05:54:33;;;;;;;10.77;5.95;;;;;;;;;;6293231;28;20767;-82
2021/12/08 05:57:39;;;;;;;10.70;5.75;;;;;;;;;;6298222;28;20116;-81
2021/12/08 06:01:01;;;;;;;12.32;5.95;;;;;;;;;;6316417;28;20094;-81
2021/12/08 06:04:05;;;;;;;9.00;5.25;;;;;;;;;;6300250;28;20127;-81
2021/12/08 06:07:08;;;;;;;9.98;6.00;;;;;;;;;;6299148;28;20557;-82
2021/12/08 06:10:15;;;;;;;16.45;9.25;;;;;;;;;;6299189;28;20726;-81
2021/12/08 06:13:17;;;;;;;29.17;13.95;;;;;;;;;;6293160;28;20040;-82
2021/12/08 06:16:21;;;;;;;35.97;16.23;;;;;;;;;;6299840;28;20146;-82
2021/12/08 06:19:23;;;;;;;28.13;12.13;;;;;;;;;;6274723;28;20075;-82
2021/12/08 06:22:27;;;;;;;34.35;15.85;;;;;;;;;;6274189;28;20045;-82
2021/12/08 06:25:28;;;;;;;18.95;9.80;;;;;;;;;;6292416;28;20146;-84
2021/12/08 06:28:30;;;;;;;16.05;8.05;;;;;;;;;;6281096;28;20040;-82
2021/12/08 06:31:35;;;;;;;19.48;9.20;;;;;;;;;;6268797;28;20051;-82
2021/12/08 06:34:40;;;;;;;14.35;8.50;;;;;;;;;;6298198;28;20040;-81
2021/12/08 06:37:43;;;;;;;15.80;9.07;;;;;;;;;;6314945;28;20054;-82
2021/12/08 06:41:00;;;;;;;12.65;6.78;;;;;;;;;;6295239;28;20142;-81
2021/12/08 06:44:10;;;;;;;47.53;18.92;;;;;;;;;;6289344;28;20610;-82
2021/12/08 06:47:17;;;;;;;71.57;28.23;;;;;;;;;;6270781;28;20413;-81
2021/12/08 06:50:31;;;;;;;38.92;16.17;;;;;;;;;;6269956;28;20044;-84
2021/12/08 06:53:33;;;;;;;20.90;10.68;;;;;;;;;;6273939;28;20123;-83
2021/12/08 06:56:41;;;;;;;22.38;10.43;;;;;;;;;;6276959;28;20040;-82
2021/12/08 06:59:56;;;;;;;64.28;27.20;;;;;;;;;;6291746;28;20072;-81
2021/12/08 07:03:30;;;;;;;74.80;26.95;;;;;;;;;;6273482;28;20048;-85
2021/12/08 07:06:43;;;;;;;26.95;13.57;;;;;;;;;;6272581;28;20603;-81
2021/12/08 07:09:50;;;;;;;21.27;8.43;;;;;;;;;;6311362;28;20040;-82
2021/12/08 07:12:58;;;;;;;21.60;9.25;;;;;;;;;;6317910;28;20056;-83
2021/12/08 07:16:11;;;;;;;18.45;7.72;;;;;;;;;;6301402;28;20040;-81
2021/12/08 07:19:35;;;;;;;17.05;9.02;;;;;;;;;;6319004;28;20036;-82
2021/12/08 07:22:37;;;;;;;33.53;13.00;;;;;;;;;;6315568;28;20536;-81
2021/12/08 07:25:39;;;;;;;39.97;12.55;;;;;;;;;;6285055;28;20123;-81
2021/12/08 07:28:41;;;;;;;40.72;15.68;;;;;;;;;;6315338;28;20123;-81
2021/12/08 07:31:49;;;;;;;39.60;17.75;;;;;;;;;;6299474;28;20516;-82
2021/12/08 07:34:57;;;;;;;45.22;18.55;;;;;;;;;;6318472;28;20059;-81
2021/12/08 07:37:59;;;;;;;28.55;13.30;;;;;;;;;;6290035;28;20046;-81
2021/12/08 07:41:10;;;;;;;26.40;12.87;;;;;;;;;;6316874;28;20044;-81
2021/12/08 07:44:14;;;;;;;16.95;8.73;;;;;;;;;;6310624;28;20518;-80
2021/12/08 07:47:16;;;;;;;;;;;;;;;;;;6307381;28;20044;-81
2021/12/08 07:50:26;;;;;;;21.92;10.68;;;;;;;;;;6299302;28;20015;-82
2021/12/08 07:53:31;;;;;;;23.42;10.68;;;;;;;;;;6297700;28;20055;-82
2021/12/08 07:56:35;;;;;;;23.00;12.30;;;;;;;;;;6291535;28;20055;-82
2021/12/08 07:59:41;;;;;;;24.60;13.25;;;;;;;;;;6301028;28;20048;-81
2021/12/08 08:02:44;;;;;;;32.53;14.90;;;;;;;;;;6280090;28;20052;-81
2021/12/08 08:05:49;;;;;;;82.38;41.63;;;;;;;;;;6294201;28;20048;-82
2021/12/08 08:08:51;;;;;;;44.58;21.38;;;;;;;;;;6301830;28;20068;-80
2021/12/08 08:11:57;;;;;;;18.70;9.32;;;;;;;;;;6317089;28;20555;-81
2021/12/08 08:15:20;;;;;;;24.67;13.23;;;;;;;;;;6298795;28;20385;-82
2021/12/08 08:18:26;;;;;;;20.80;10.52;;;;;;;;;;6299416;28;20122;-81
2021/12/08 08:21:31;;;;;;;18.38;9.00;;;;;;;;;;6296918;28;20599;-82
2021/12/08 08:24:34;;;;;;;22.13;9.40;;;;;;;;;;6293511;28;20044;-84
2021/12/08 08:27:36;;;;;;;25.98;11.00;;;;;;;;;;6275736;28;20082;-81
2021/12/08 08:30:43;;;;;;;22.42;11.00;;;;;;;;;;6303621;28;20048;-83
2021/12/08 08:33:46;;;;;;;23.52;10.13;;;;;;;;;;6312603;28;20413;-82
2021/12/08 08:36:49;;;;;;;24.38;11.57;;;;;;;;;;6290251;28;20066;-83
2021/12/08 08:39:55;;;;;;;20.38;10.10;;;;;;;;;;6295094;28;20094;-85
2021/12/08 08:42:58;;;;;;;23.15;11.07;;;;;;;;;;6294087;28;20533;-82
2021/12/08 08:46:08;;;;;;;22.00;10.30;;;;;;;;;;6298140;28;20040;-84
2021/12/08 08:49:14;;;;;;;22.35;10.48;;;;;;;;;;6297889;28;20042;-82
2021/12/08 08:52:27;;;;;;;24.25;10.23;;;;;;;;;;6295811;28;20699;-81
2021/12/08 08:55:33;;;;;;;24.55;10.48;;;;;;;;;;6281043;28;20044;-82
2021/12/08 08:58:38;;;;;;;21.35;10.73;;;;;;;;;;6291310;28;20055;-81
2021/12/08 09:01:48;;;;;;;23.40;10.95;;;;;;;;;;6279277;28;20040;-83
2021/12/08 09:04:58;;;;;;;23.77;11.10;;;;;;;;;;6313400;28;20401;-81
2021/12/08 09:08:04;;;;;;;20.80;11.07;;;;;;;;;;6313604;28;20069;-80
2021/12/08 09:11:15;;;;;;;25.13;10.85;;;;;;;;;;6307357;28;20044;-82
2021/12/08 09:14:40;;;;;;;23.42;11.52;;;;;;;;;;6294079;28;20040;-80
2021/12/08 09:17:50;;;;;;;21.25;11.27;;;;;;;;;;6289318;28;20343;-82
2021/12/08 09:21:09;;;;;;;28.20;12.05;;;;;;;;;;6276765;28;20049;-84
2021/12/08 09:24:23;;;;;;;19.55;9.88;;;;;;;;;;6289832;28;20515;-82
2021/12/08 09:27:34;;;;;;;19.80;10.00;;;;;;;;;;6274402;28;20140;-83
2021/12/08 09:30:43;;;;;;;38.95;17.15;;;;;;;;;;6273438;28;20048;-81
2021/12/08 09:33:58;;;;;;;100.18;32.88;;;;;;;;;;6299375;28;20040;-81
2021/12/08 09:37:06;;;;;;;44.13;20.33;;;;;;;;;;6312171;28;20131;-80
2021/12/08 09:40:33;;;;;;;32.33;15.70;;;;;;;;;;6295210;28;20048;-81
2021/12/08 09:43:46;;;;;;;41.42;16.88;;;;;;;;;;6288619;28;20049;-81
2021/12/08 09:46:49;;;;;;;;;;;;;;;;;;6296572;28;20056;-82
2021/12/08 09:49:51;;;;;;;18.08;9.75;;;;;;;;;;6314397;28;20282;-81
2021/12/08 09:52:53;;;;;;;49.08;19.98;;;;;;;;;;6298846;28;20040;-80
2021/12/08 09:55:56;;;;;;;29.00;13.32;;;;;;;;;;6296761;28;20048;-81
2021/12/08 09:58:57;;;;;;;23.88;11.40;;;;;;;;;;6293011;28;20041;-82
2021/12/08 10:02:03;;;;;;;28.40;12.52;;;;;;;;;;6290897;28;20123;-80
2021/12/08 10:05:16;;;;;;;26.23;10.32;;;;;;;;;;6290652;28;20045;-82
2021/12/08 10:08:18;;;;;;;26.85;10.85;;;;;;;;;;6283998;28;20044;-83
2021/12/08 10:11:20;;;;;;;24.83;11.85;;;;;;;;;;6280702;28;20063;-85
2021/12/08 10:14:22;;;;;;;21.65;11.15;;;;;;;;;;6297524;28;20650;-84
2021/12/08 10:17:24;;;;;;;25.65;12.65;;;;;;;;;;6297753;28;20058;-84
2021/12/08 10:20:32;;;;;;;35.20;15.57;;;;;;;;;;6297693;28;20044;-83
2021/12/08 10:23:37;;;;;;;22.15;10.73;;;;;;;;;;6289372;28;20052;-83
2021/12/08 10:26:40;;;;;;;33.67;12.93;;;;;;;;;;6297682;28;20044;-82
2021/12/08 10:29:42;;;;;;;25.95;11.00;;;;;;;;;;6295206;28;20131;-80
2021/12/08 10:32:44;;;;;;;31.42;12.52;;;;;;;;;;6293444;28;20067;-81
2021/12/08 10:35:59;;;;;;;21.02;10.38;;;;;;;;;;6257593;28;20109;-82
2021/12/08 10:39:31;;;;;;;25.77;11.52;;;;;;;;;;6272612;28;20036;-84
2021/12/08 10:42:33;;;;;;;27.73;11.60;;;;;;;;;;6268492;28;20471;-81
2021/12/08 10:45:35;;;;;;;24.02;10.70;;;;;;;;;;6300530;28;20482;-83
2021/12/08 10:48:43;;;;;;;24.00;11.50;;;;;;;;;;6302534;28;20040;-82
2021/12/08 10:55:15;;;;;;;21.65;11.07;;;;;;;;;;6320368;28;20484;-82
2021/12/08 10:58:28;;;;;;;29.35;13.50;;;;;;;;;;6303835;28;20064;-82
2021/12/08 11:01:29;;;;;;;29.70;13.25;;;;;;;;;;6295777;28;20053;-83
2021/12/08 11:04:32;;;;;;;34.08;14.70;;;;;;;;;;6295992;28;20055;-80
2021/12/08 11:07:33;;;;;;;33.00;15.63;;;;;;;;;;6284827;28;20047;-80
2021/12/08 11:10:40;;;;;;;33.80;15.43;;;;;;;;;;6284441;28;20041;-81
2021/12/08 11:13:45;;;;;;;22.38;11.35;;;;;;;;;;6302540;28;20032;-81
2021/12/08 11:16:46;;;;;;;22.90;11.23;;;;;;;;;;6284410;28;20055;-79
2021/12/08 11:19:48;;;;;;;31.85;12.80;;;;;;;;;;6317277;28;20043;-82
2021/12/08 11:23:05;;;;;;;39.63;17.05;;;;;;;;;;6310948;28;20097;-79
2021/12/08 11:26:10;;;;;;;27.00;12.65;;;;;;;;;;6300628;28;20416;-80
2021/12/08 11:29:16;;;;;;;27.92;12.50;;;;;;;;;;6318470;28;20050;-80
2021/12/08 11:32:22;;;;;;;24.15;12.85;;;;;;;;;;6300940;28;20032;-79
2021/12/08 11:35:24;;;;;;;28.02;15.20;;;;;;;;;;6293546;28;20079;-81
2021/12/08 11:38:26;;;;;;;22.02;10.80;;;;;;;;;;6300825;28;20127;-78
2021/12/08 11:41:36;;;;;;;20.77;10.00;;;;;;;;;;6299396;28;20497;-80
2021/12/08 11:44:41;;;;;;;22.90;10.60;;;;;;;;;;6305530;28;20044;-80
2021/12/08 11:47:44;;;;;;;20.25;10.27;;;;;;;;;;6274123;28;20127;-79
2021/12/08 11:50:46;;;;;;;22.27;11.65;;;;;;;;;;6273990;28;20409;-80
2021/12/08 11:53:47;;;;;;;29.08;12.98;;;;;;;;;;6301710;28;20044;-80
2021/12/08 11:57:10;;;;;;;18.85;10.25;;;;;;;;;;6273748;28;20041;-80
2021/12/08 12:00:22;;;;;;;20.35;9.80;;;;;;;;;;6314116;28;20048;-82
2021/12/08 12:03:24;;;;;;;20.92;10.48;;;;;;;;;;6302475;28;20054;-81
2021/12/08 12:06:28;;;;;;;31.77;15.57;;;;;;;;;;6301717;28;20055;-82
2021/12/08 12:09:29;;;;;;;24.77;12.50;;;;;;;;;;6300057;28;20110;-80
2021/12/08 12:12:31;;;;;;;26.80;12.43;;;;;;;;;;6290698;28;20579;-81
2021/12/08 12:15:33;;;;;;;30.55;13.90;;;;;;;;;;6291649;28;20067;-81
2021/12/08 12:18:34;;;;;;;34.88;16.60;;;;;;;;;;6293122;28;20123;-81
2021/12/08 12:21:56;;;;;;;28.45;13.15;;;;;;;;;;6298355;28;20588;-81
2021/12/08 12:25:26;;;;;;;31.77;17.52;;;;;;;;;;6300980;28;20051;-82
2021/12/08 12:29:01;;;;;;;18.52;10.77;;;;;;;;;;6282682;28;20067;-81
2021/12/08 12:32:05;;;;;;;22.15;10.98;;;;;;;;;;6291918;28;20040;-81
2021/12/08 12:35:14;;;;;;;23.52;12.52;;;;;;;;;;6313095;28;20045;-81
2021/12/08 12:38:16;;;;;;;31.33;15.35;;;;;;;;;;6309995;28;20109;-81
2021/12/08 12:41:27;;;;;;;27.65;14.57;;;;;;;;;;6292103;28;20411;-82
2021/12/08 12:44:31;;;;;;;22.63;12.10;;;;;;;;;;6294393;28;20178;-82
2021/12/08 12:47:33;;;;;;;22.15;11.45;;;;;;;;;;6287492;28;20036;-80
2021/12/08 12:50:54;;;;;;;32.40;14.98;;;;;;;;;;6296852;28;20178;-82
2021/12/08 12:53:56;;;;;;;23.17;10.88;;;;;;;;;;6309110;28;20142;-81
2021/12/08 12:57:00;;;;;;;22.75;12.25;;;;;;;;;;6295671;28;20047;-81
2021/12/08 13:00:21;;;;;;;36.40;16.73;;;;;;;;;;6294201;28;20056;-79
2021/12/08 13:04:12;;;;;;;38.53;20.20;;;;;;;;;;6283425;28;20067;-81
2021/12/08 13:07:14;;;;;;;28.70;12.85;;;;;;;;;;6225720;28;20107;-80
2021/12/08 13:10:19;;;;;;;34.67;14.65;;;;;;;;;;6292499;28;20142;-82
2021/12/08 13:13:21;;;;;;;28.40;12.07;;;;;;;;;;6265692;28;20048;-81
2021/12/08 13:16:33;;;;;;;25.65;12.85;;;;;;;;;;6282820;28;20497;-81
2021/12/08 13:19:50;;;;;;;28.10;13.93;;;;;;;;;;6292397;28;20041;-81
2021/12/08 13:22:55;;;;;;;29.40;14.10;;;;;;;;;;6277749;28;20131;-82
2021/12/08 13:26:17;;;;;;;35.42;14.52;;;;;;;;;;6287120;28;20041;-82
2021/12/08 13:29:23;;;;;;;25.20;11.15;;;;;;;;;;6274449;28;20044;-81
2021/12/08 13:32:46;;;;;;;27.38;12.52;;;;;;;;;;6310186;28;20040;-80
2021/12/08 13:35:47;;;;;;;32.40;13.93;;;;;;;;;;6316802;28;20173;-81
2021/12/08 13:38:58;;;;;;;31.80;14.15;;;;;;;;;;6294448;28;20055;-81
2021/12/08 13:42:08;;;;;;;33.47;14.82;;;;;;;;;;6271889;28;20147;-81
2021/12/08 13:45:13;;;;;;;32.63;13.95;;;;;;;;;;6294755;28;20119;-81
2021/12/08 13:48:15;;;;;;;29.35;12.82;;;;;;;;;;6294722;28;20508;-80
2021/12/08 13:51:21;;;;;;;25.90;11.85;;;;;;;;;;6312533;28;20116;-81
2021/12/08 13:54:25;;;;;;;32.45;13.68;;;;;;;;;;6271316;28;20132;-81
2021/12/08 13:57:56;;;;;;;31.88;14.43;;;;;;;;;;6288542;28;20182;-82
2021/12/08 14:00:59;;;;;;;35.38;13.27;;;;;;;;;;6311071;28;20050;-81
2021/12/08 14:04:14;;;;;;;;;;;;;;;;;;6301035;28;20052;-80
2021/12/08 14:07:18;;;;;;;33.83;14.38;;;;;;;;;;6317681;28;19969;-82
2021/12/08 14:10:29;;;;;;;40.22;16.25;;;;;;;;;;6290907;28;20186;-79
2021/12/08 14:13:33;;;;;;;40.28;15.57;;;;;;;;;;6293339;28;20050;-81
2021/12/08 14:16:35;;;;;;;38.60;15.25;;;;;;;;;;6309727;28;20459;-81
2021/12/08 14:19:38;;;;;;;34.92;15.80;;;;;;;;;;6274490;28;20049;-81
2021/12/08 14:22:40;;;;;;;31.38;14.60;;;;;;;;;;6301337;28;20051;-80
2021/12/08 14:25:52;;;;;;;32.00;14.05;;;;;;;;;;6293314;28;20086;-80
2021/12/08 14:28:56;;;;;;;32.33;13.35;;;;;;;;;;6316342;28;20054;-80
2021/12/08 14:31:58;;;;;;;31.15;13.05;;;;;;;;;;6290081;28;20048;-80
2021/12/08 14:35:08;;;;;;;31.23;12.70;;;;;;;;;;6298560;28;20198;-80
2021/12/08 14:38:10;;;;;;;29.67;14.63;;;;;;;;;;6303787;28;20166;-80
2021/12/08 14:41:23;;;;;;;38.97;17.10;;;;;;;;;;6292071;28;20048;-81
2021/12/08 14:44:28;;;;;;;40.40;17.92;;;;;;;;;;6280106;28;20051;-80
2021/12/08 14:47:32;;;;;;;39.92;17.10;;;;;;;;;;6321070;28;20040;-79
2021/12/08 14:50:34;;;;;;;42.25;18.45;;;;;;;;;;6317234;28;20415;-80
2021/12/08 14:53:36;;;;;;;33.85;14.43;;;;;;;;;;6290706;28;20069;-79
2021/12/08 14:56:38;;;;;;;45.28;20.48;;;;;;;;;;6322513;28;20052;-81
2021/12/08 15:00:03;;;;;;;49.65;21.92;;;;;;;;;;6304735;28;20162;-80
2021/12/08 15:03:11;;;;;;;33.42;13.88;;;;;;;;;;6304128;28;20052;-82
2021/12/08 15:06:17;;;;;;;47.03;20.02;;;;;;;;;;6307299;28;20098;-83
2021/12/08 15:09:19;;;;;;;38.65;16.05;;;;;;;;;;6291596;28;20501;-81
2021/12/08 15:12:21;;;;;;;47.45;19.40;;;;;;;;;;6302614;28;20412;-81
2021/12/08 15:15:25;;;;;;;71.47;24.77;;;;;;;;;;6304033;28;20159;-81
2021/12/08 15:18:30;;;;;;;75.63;23.17;;;;;;;;;;6311408;28;20509;-82
2021/12/08 15:21:42;;;;;;;56.40;19.77;;;;;;;;;;6294092;28;20044;-81
2021/12/08 15:24:43;;;;;;;44.25;17.00;;;;;;;;;;6283413;28;20108;-83
2021/12/08 15:27:48;;;;;;;40.85;15.10;;;;;;;;;;6289972;28;20480;-82
2021/12/08 15:30:53;;;;;;;32.10;14.98;;;;;;;;;;6284332;28;20040;-81
2021/12/08 15:34:17;;;;;;;37.13;17.55;;;;;;;;;;6311710;28;20100;-82
2021/12/08 15:37:19;;;;;;;32.08;14.80;;;;;;;;;;6310489;28;20036;-83
2021/12/08 15:40:36;;;;;;;29.13;12.48;;;;;;;;;;6309163;28;20497;-82
2021/12/08 15:43:38;;;;;;;29.45;13.43;;;;;;;;;;6294308;28;20078;-80
2021/12/08 15:46:43;;;;;;;;;;;;;;;;;;6297028;28;20040;-82
2021/12/08 15:49:46;;;;;;;39.72;17.48;;;;;;;;;;6288452;28;19926;-82
2021/12/08 15:52:59;;;;;;;37.10;18.45;;;;;;;;;;6311124;28;20501;-82
2021/12/08 15:56:05;;;;;;;38.10;17.70;;;;;;;;;;6317627;28;20119;-83
2021/12/08 15:59:28;;;;;;;45.03;22.33;;;;;;;;;;6310409;28;20723;-82
2021/12/08 16:02:31;;;;;;;38.92;18.13;;;;;;;;;;6300765;28;20153;-80
2021/12/08 16:05:33;;;;;;;58.22;24.05;;;;;;;;;;6302080;28;20063;-80
2021/12/08 16:08:35;;;;;;;49.23;20.60;;;;;;;;;;6301843;28;20037;-82
2021/12/08 16:11:37;;;;;;;41.65;19.60;;;;;;;;;;6314326;28;20047;-82
2021/12/08 16:14:53;;;;;;;53.13;24.45;;;;;;;;;;6292541;28;20068;-81
2021/12/08 16:18:02;;;;;;;46.90;22.92;;;;;;;;;;6302682;28;20386;-81
2021/12/08 16:21:03;;;;;;;48.35;23.35;;;;;;;;;;6298442;28;20043;-82
2021/12/08 16:24:06;;;;;;;40.15;20.23;;;;;;;;;;6318745;28;20052;-80
2021/12/08 16:27:12;;;;;;;43.20;19.02;;;;;;;;;;6300583;28;20120;-80
2021/12/08 16:30:14;;;;;;;39.78;16.90;;;;;;;;;;6290683;28;20552;-81
2021/12/08 16:33:15;;;;;;;38.83;16.85;;;;;;;;;;6282600;28;20051;-81
2021/12/08 16:36:18;;;;;;;48.28;18.98;;;;;;;;;;6298827;28;20052;-81
2021/12/08 16:39:28;;;;;;;55.60;23.30;;;;;;;;;;6278896;28;20035;-80
2021/12/08 16:45:53;;;;;;;40.55;18.60;;;;;;;;;;6291605;28;20048;-79
2021/12/08 16:48:55;;;;;;;44.20;18.50;;;;;;;;;;6295263;28;20075;-80
2021/12/08 16:51:57;;;;;;;45.35;19.05;;;;;;;;;;6289613;28;20064;-80
2021/12/08 16:54:58;;;;;;;43.72;16.60;;;;;;;;;;6271044;28;20060;-82
2021/12/08 16:58:03;;;;;;;39.75;16.45;;;;;;;;;;6273883;28;20887;-82
2021/12/08 17:01:05;;;;;;;33.42;15.35;;;;;;;;;;6290802;28;20064;-82
2021/12/08 17:04:07;;;;;;;37.65;16.17;;;;;;;;;;6272141;28;20049;-81
2021/12/08 17:07:10;;;;;;;39.15;17.10;;;;;;;;;;6290832;28;20549;-81
2021/12/08 17:10:13;;;;;;;40.95;17.63;;;;;;;;;;6269853;28;20062;-81
2021/12/08 17:13:16;;;;;;;32.95;16.08;;;;;;;;;;6314151;28;20044;-83
2021/12/08 17:16:18;;;;;;;38.17;17.02;;;;;;;;;;6272000;28;20052;-82
2021/12/08 17:19:20;;;;;;;47.90;22.00;;;;;;;;;;6258128;28;20037;-80
2021/12/08 17:22:22;;;;;;;41.33;18.92;;;;;;;;;;6267748;28;21211;-83
2021/12/08 17:25:24;;;;;;;42.10;20.05;;;;;;;;;;6281485;28;20047;-82
2021/12/08 17:28:28;;;;;;;42.28;18.52;;;;;;;;;;6279787;28;20048;-82
2021/12/08 17:31:29;;;;;;;48.00;19.10;;;;;;;;;;6280845;28;20047;-81
2021/12/08 17:34:31;;;;;;;43.78;18.10;;;;;;;;;;6290871;28;20476;-80
2021/12/08 17:37:34;;;;;;;89.35;35.70;;;;;;;;;;6264324;28;20054;-83
2021/12/08 17:40:55;;;;;;;54.95;22.65;;;;;;;;;;6295354;28;20044;-82
2021/12/08 17:43:57;;;;;;;46.70;20.15;;;;;;;;;;6278160;28;20048;-84
2021/12/08 17:47:03;;;;;;;58.47;23.98;;;;;;;;;;6289525;28;20044;-82
2021/12/08 17:50:06;;;;;;;84.43;34.17;;;;;;;;;;6301316;28;20056;-82
2021/12/08 17:53:08;;;;;;;50.35;21.23;;;;;;;;;;6279448;28;20070;-83
2021/12/08 17:56:10;;;;;;;42.22;17.33;;;;;;;;;;6292944;28;20473;-82
2021/12/08 17:59:13;;;;;;;51.13;20.20;;;;;;;;;;6298331;28;20484;-83
2021/12/08 18:02:18;;;;;;;39.63;17.17;;;;;;;;;;6280710;28;20049;-82
2021/12/08 18:05:20;;;;;;;59.50;22.58;;;;;;;;;;6261906;28;20511;-81
2021/12/08 18:08:23;;;;;;;69.63;25.58;;;;;;;;;;6262871;28;20036;-82
2021/12/08 18:11:26;;;;;;;53.50;18.63;;;;;;;;;;6272397;28;20059;-82
2021/12/08 18:14:28;;;;;;;52.78;19.65;;;;;;;;;;6278325;28;20040;-81
2021/12/08 18:17:30;;;;;;;47.22;17.40;;;;;;;;;;6286908;28;20110;-81
2021/12/08 18:20:41;;;;;;;54.92;18.85;;;;;;;;;;6291768;28;20107;-82
2021/12/08 18:23:44;;;;;;;58.92;20.55;;;;;;;;;;6283276;28;20044;-82
2021/12/08 18:26:46;;;;;;;72.15;23.85;;;;;;;;;;6295356;28;20756;-83
2021/12/08 18:29:48;;;;;;;56.88;18.05;;;;;;;;;;6292084;28;20619;-81
2021/12/08 18:32:52;;;;;;;50.28;18.45;;;;;;;;;;6310708;28;20139;-82
2021/12/08 18:38:59;;;;;;;80.93;24.88;;;;;;;;;;6305271;28;20044;-82
2021/12/08 18:42:05;;;;;;;60.47;20.83;;;;;;;;;;6294517;28;20121;-81
2021/12/08 18:45:08;;;;;;;79.07;22.00;;;;;;;;;;6285966;28;20044;-81
2021/12/08 18:48:11;;;;;;;70.15;23.33;;;;;;;;;;6273736;28;20044;-81
2021/12/08 18:51:19;;;;;;;79.00;25.27;;;;;;;;;;6275664;28;20039;-81
2021/12/08 18:54:21;;;;;;;73.55;22.75;;;;;;;;;;6307844;28;20180;-82
2021/12/08 18:57:22;;;;;;;79.40;24.02;;;;;;;;;;6289510;28;20394;-82
2021/12/08 19:00:26;;;;;;;79.63;23.95;;;;;;;;;;6280911;28;20075;-79